sensor_id;sensor_type;location;lat;lon;timestamp;P1;durP1;ratioP1;P2;durP2;ratioP2
33672;SDS011;20011;51.510;9.942;2022-12-18T00:01:22;37.33;;;13.45;;
33672;SDS011;20011;51.510;9.942;2022-12-18T00:03:52;31.20;;;14.38;;
33672;SDS011;20011;51.510;9.942;2022-12-18T00:06:20;35.60;;;14.80;;
33672;SDS011;20011;51.510;9.942;2022-12-18T00:08:48;34.08;;;15.45;;
33672;SDS011;20011;51.510;9.942;2022-12-18T00:11:17;32.72;;;13.98;;
33672;SDS011;20011;51.510;9.942;2022-12-18T00:13:45;29.38;;;12.60;;
33672;SDS011;20011;51.510;9.942;2022-12-18T00:16:14;24.60;;;12.07;;
33672;SDS011;20011;51.510;9.942;2022-12-18T00:18:43;31.48;;;14.00;;
33672;SDS011;20011;51.510;9.942;2022-12-18T00:21:10;31.27;;;14.43;;
33672;SDS011;20011;51.510;9.942;2022-12-18T00:23:39;28.58;;;14.13;;
33672;SDS011;20011;51.510;9.942;2022-12-18T00:26:10;30.88;;;14.27;;
33672;SDS011;20011;51.510;9.942;2022-12-18T00:28:39;30.23;;;15.00;;
33672;SDS011;20011;51.510;9.942;2022-12-18T00:31:07;33.45;;;14.20;;
33672;SDS011;20011;51.510;9.942;2022-12-18T00:33:37;30.05;;;13.48;;
33672;SDS011;20011;51.510;9.942;2022-12-18T00:36:12;29.80;;;13.55;;
33672;SDS011;20011;51.510;9.942;2022-12-18T00:38:42;36.05;;;14.35;;
33672;SDS011;20011;51.510;9.942;2022-12-18T00:41:11;29.42;;;13.55;;
33672;SDS011;20011;51.510;9.942;2022-12-18T00:43:39;34.40;;;14.03;;
33672;SDS011;20011;51.510;9.942;2022-12-18T00:46:07;27.73;;;13.88;;
33672;SDS011;20011;51.510;9.942;2022-12-18T00:48:34;32.83;;;13.50;;
33672;SDS011;20011;51.510;9.942;2022-12-18T00:51:02;27.67;;;14.05;;
33672;SDS011;20011;51.510;9.942;2022-12-18T00:53:29;30.52;;;13.55;;
33672;SDS011;20011;51.510;9.942;2022-12-18T00:55:57;34.70;;;13.77;;
33672;SDS011;20011;51.510;9.942;2022-12-18T00:58:24;30.33;;;13.15;;
33672;SDS011;20011;51.510;9.942;2022-12-18T01:00:54;32.80;;;14.48;;
33672;SDS011;20011;51.510;9.942;2022-12-18T01:03:22;26.67;;;12.57;;
33672;SDS011;20011;51.510;9.942;2022-12-18T01:05:50;26.65;;;13.27;;
33672;SDS011;20011;51.510;9.942;2022-12-18T01:08:17;34.28;;;12.32;;
33672;SDS011;20011;51.510;9.942;2022-12-18T01:10:45;27.75;;;12.35;;
33672;SDS011;20011;51.510;9.942;2022-12-18T01:13:12;28.25;;;12.60;;
33672;SDS011;20011;51.510;9.942;2022-12-18T01:15:39;29.83;;;14.18;;
33672;SDS011;20011;51.510;9.942;2022-12-18T01:18:09;33.45;;;13.35;;
33672;SDS011;20011;51.510;9.942;2022-12-18T01:20:37;34.35;;;13.48;;
33672;SDS011;20011;51.510;9.942;2022-12-18T01:23:04;28.83;;;13.40;;
33672;SDS011;20011;51.510;9.942;2022-12-18T01:25:37;28.58;;;12.25;;
33672;SDS011;20011;51.510;9.942;2022-12-18T01:28:08;31.23;;;13.27;;
33672;SDS011;20011;51.510;9.942;2022-12-18T01:30:36;25.90;;;12.93;;
33672;SDS011;20011;51.510;9.942;2022-12-18T01:35:39;39.22;;;13.68;;
33672;SDS011;20011;51.510;9.942;2022-12-18T01:38:08;26.65;;;12.10;;
33672;SDS011;20011;51.510;9.942;2022-12-18T01:40:35;28.90;;;12.73;;
33672;SDS011;20011;51.510;9.942;2022-12-18T01:43:03;34.92;;;14.38;;
33672;SDS011;20011;51.510;9.942;2022-12-18T01:45:31;29.13;;;12.38;;
33672;SDS011;20011;51.510;9.942;2022-12-18T01:48:03;32.65;;;13.57;;
33672;SDS011;20011;51.510;9.942;2022-12-18T01:50:33;29.25;;;12.85;;
33672;SDS011;20011;51.510;9.942;2022-12-18T01:53:14;24.88;;;12.60;;
33672;SDS011;20011;51.510;9.942;2022-12-18T01:58:11;27.70;;;12.23;;
33672;SDS011;20011;51.510;9.942;2022-12-18T02:00:39;28.70;;;13.02;;
33672;SDS011;20011;51.510;9.942;2022-12-18T02:03:07;32.70;;;13.85;;
33672;SDS011;20011;51.510;9.942;2022-12-18T02:05:44;27.13;;;12.43;;
33672;SDS011;20011;51.510;9.942;2022-12-18T02:15:54;24.85;;;11.93;;
33672;SDS011;20011;51.510;9.942;2022-12-18T02:18:26;29.45;;;11.55;;
33672;SDS011;20011;51.510;9.942;2022-12-18T02:21:10;25.00;;;11.45;;
33672;SDS011;20011;51.510;9.942;2022-12-18T02:27:03;27.70;;;11.77;;
33672;SDS011;20011;51.510;9.942;2022-12-18T02:29:36;26.52;;;10.85;;
33672;SDS011;20011;51.510;9.942;2022-12-18T02:32:08;28.77;;;11.27;;
33672;SDS011;20011;51.510;9.942;2022-12-18T02:34:39;31.67;;;11.90;;
33672;SDS011;20011;51.510;9.942;2022-12-18T02:37:13;23.48;;;11.25;;
33672;SDS011;20011;51.510;9.942;2022-12-18T02:39:44;22.00;;;9.85;;
33672;SDS011;20011;51.510;9.942;2022-12-18T02:42:14;23.52;;;10.35;;
33672;SDS011;20011;51.510;9.942;2022-12-18T02:44:43;22.65;;;10.77;;
33672;SDS011;20011;51.510;9.942;2022-12-18T02:47:20;23.80;;;11.52;;
33672;SDS011;20011;51.510;9.942;2022-12-18T03:00:07;24.83;;;10.93;;
33672;SDS011;20011;51.510;9.942;2022-12-18T03:02:43;29.63;;;12.48;;
33672;SDS011;20011;51.510;9.942;2022-12-18T03:06:00;29.75;;;12.25;;
33672;SDS011;20011;51.510;9.942;2022-12-18T03:08:28;21.38;;;11.18;;
33672;SDS011;20011;51.510;9.942;2022-12-18T03:11:02;23.70;;;10.68;;
33672;SDS011;20011;51.510;9.942;2022-12-18T03:13:37;26.90;;;11.50;;
33672;SDS011;20011;51.510;9.942;2022-12-18T03:16:15;20.38;;;9.85;;
33672;SDS011;20011;51.510;9.942;2022-12-18T03:18:50;23.48;;;10.90;;
33672;SDS011;20011;51.510;9.942;2022-12-18T03:21:25;27.77;;;11.30;;
33672;SDS011;20011;51.510;9.942;2022-12-18T03:23:56;25.63;;;11.15;;
33672;SDS011;20011;51.510;9.942;2022-12-18T03:26:25;23.70;;;10.35;;
33672;SDS011;20011;51.510;9.942;2022-12-18T03:28:59;27.20;;;10.90;;
33672;SDS011;20011;51.510;9.942;2022-12-18T03:31:30;27.02;;;10.90;;
33672;SDS011;20011;51.510;9.942;2022-12-18T03:34:03;27.60;;;12.10;;
33672;SDS011;20011;51.510;9.942;2022-12-18T03:36:41;26.60;;;10.60;;
33672;SDS011;20011;51.510;9.942;2022-12-18T03:39:08;25.02;;;10.07;;
33672;SDS011;20011;51.510;9.942;2022-12-18T03:41:41;30.75;;;12.48;;
33672;SDS011;20011;51.510;9.942;2022-12-18T03:47:28;22.67;;;10.88;;
33672;SDS011;20011;51.510;9.942;2022-12-18T03:55:11;23.27;;;10.70;;
33672;SDS011;20011;51.510;9.942;2022-12-18T03:57:41;27.38;;;11.20;;
33672;SDS011;20011;51.510;9.942;2022-12-18T04:00:12;25.85;;;10.10;;
33672;SDS011;20011;51.510;9.942;2022-12-18T04:02:52;25.27;;;10.93;;
33672;SDS011;20011;51.510;9.942;2022-12-18T04:05:29;25.98;;;10.85;;
33672;SDS011;20011;51.510;9.942;2022-12-18T04:08:00;24.15;;;11.32;;
33672;SDS011;20011;51.510;9.942;2022-12-18T04:10:31;25.15;;;10.98;;
33672;SDS011;20011;51.510;9.942;2022-12-18T04:13:00;30.17;;;10.82;;
33672;SDS011;20011;51.510;9.942;2022-12-18T04:15:28;21.35;;;10.57;;
33672;SDS011;20011;51.510;9.942;2022-12-18T04:17:57;25.48;;;10.27;;
33672;SDS011;20011;51.510;9.942;2022-12-18T04:20:34;23.80;;;9.85;;
33672;SDS011;20011;51.510;9.942;2022-12-18T04:23:02;21.13;;;9.20;;
33672;SDS011;20011;51.510;9.942;2022-12-18T04:25:30;27.20;;;10.85;;
33672;SDS011;20011;51.510;9.942;2022-12-18T04:28:07;20.45;;;10.43;;
33672;SDS011;20011;51.510;9.942;2022-12-18T04:30:37;22.45;;;9.88;;
33672;SDS011;20011;51.510;9.942;2022-12-18T04:33:08;34.13;;;10.73;;
33672;SDS011;20011;51.510;9.942;2022-12-18T04:35:39;21.05;;;10.38;;
33672;SDS011;20011;51.510;9.942;2022-12-18T04:38:08;17.63;;;8.73;;
33672;SDS011;20011;51.510;9.942;2022-12-18T04:40:37;22.57;;;9.97;;
33672;SDS011;20011;51.510;9.942;2022-12-18T04:43:13;23.58;;;10.15;;
33672;SDS011;20011;51.510;9.942;2022-12-18T04:45:40;18.63;;;8.63;;
33672;SDS011;20011;51.510;9.942;2022-12-18T04:48:08;20.67;;;9.65;;
33672;SDS011;20011;51.510;9.942;2022-12-18T04:50:36;25.40;;;10.75;;
33672;SDS011;20011;51.510;9.942;2022-12-18T04:53:03;18.17;;;9.02;;
33672;SDS011;20011;51.510;9.942;2022-12-18T04:55:31;19.08;;;9.63;;
33672;SDS011;20011;51.510;9.942;2022-12-18T04:57:58;19.45;;;8.60;;
33672;SDS011;20011;51.510;9.942;2022-12-18T05:00:25;18.27;;;9.27;;
33672;SDS011;20011;51.510;9.942;2022-12-18T05:02:53;17.45;;;9.63;;
33672;SDS011;20011;51.510;9.942;2022-12-18T05:05:21;22.92;;;9.00;;
33672;SDS011;20011;51.510;9.942;2022-12-18T05:07:48;17.92;;;7.60;;
33672;SDS011;20011;51.510;9.942;2022-12-18T05:10:15;19.08;;;9.10;;
33672;SDS011;20011;51.510;9.942;2022-12-18T05:12:43;18.65;;;8.27;;
33672;SDS011;20011;51.510;9.942;2022-12-18T05:15:27;19.40;;;9.35;;
33672;SDS011;20011;51.510;9.942;2022-12-18T05:17:56;20.30;;;9.02;;
33672;SDS011;20011;51.510;9.942;2022-12-18T05:20:24;21.55;;;8.43;;
33672;SDS011;20011;51.510;9.942;2022-12-18T05:22:51;25.08;;;8.55;;
33672;SDS011;20011;51.510;9.942;2022-12-18T05:25:19;23.20;;;9.63;;
33672;SDS011;20011;51.510;9.942;2022-12-18T05:27:46;20.50;;;9.15;;
33672;SDS011;20011;51.510;9.942;2022-12-18T05:30:14;19.13;;;8.65;;
33672;SDS011;20011;51.510;9.942;2022-12-18T05:32:42;22.35;;;9.02;;
33672;SDS011;20011;51.510;9.942;2022-12-18T05:35:10;19.27;;;8.10;;
33672;SDS011;20011;51.510;9.942;2022-12-18T05:37:37;18.58;;;8.50;;
33672;SDS011;20011;51.510;9.942;2022-12-18T05:40:08;16.25;;;7.50;;
33672;SDS011;20011;51.510;9.942;2022-12-18T05:42:36;15.52;;;7.32;;
33672;SDS011;20011;51.510;9.942;2022-12-18T05:45:03;21.33;;;8.68;;
33672;SDS011;20011;51.510;9.942;2022-12-18T05:47:31;21.48;;;8.55;;
33672;SDS011;20011;51.510;9.942;2022-12-18T05:49:58;18.33;;;8.15;;
33672;SDS011;20011;51.510;9.942;2022-12-18T05:52:26;21.63;;;7.50;;
33672;SDS011;20011;51.510;9.942;2022-12-18T05:54:53;18.10;;;8.45;;
33672;SDS011;20011;51.510;9.942;2022-12-18T05:57:20;16.30;;;7.32;;
33672;SDS011;20011;51.510;9.942;2022-12-18T05:59:48;22.65;;;9.50;;
33672;SDS011;20011;51.510;9.942;2022-12-18T06:02:15;18.80;;;8.68;;
33672;SDS011;20011;51.510;9.942;2022-12-18T06:04:42;18.95;;;7.88;;
33672;SDS011;20011;51.510;9.942;2022-12-18T06:07:10;18.10;;;7.50;;
33672;SDS011;20011;51.510;9.942;2022-12-18T06:09:37;16.52;;;7.75;;
33672;SDS011;20011;51.510;9.942;2022-12-18T06:12:05;19.85;;;7.97;;
33672;SDS011;20011;51.510;9.942;2022-12-18T06:14:32;13.98;;;7.60;;
33672;SDS011;20011;51.510;9.942;2022-12-18T06:16:59;16.70;;;6.80;;
33672;SDS011;20011;51.510;9.942;2022-12-18T06:19:26;20.38;;;8.32;;
33672;SDS011;20011;51.510;9.942;2022-12-18T06:21:53;25.27;;;8.15;;
33672;SDS011;20011;51.510;9.942;2022-12-18T06:24:21;16.38;;;8.02;;
33672;SDS011;20011;51.510;9.942;2022-12-18T06:26:48;25.40;;;7.43;;
33672;SDS011;20011;51.510;9.942;2022-12-18T06:29:15;21.40;;;7.43;;
33672;SDS011;20011;51.510;9.942;2022-12-18T06:31:43;20.40;;;7.78;;
33672;SDS011;20011;51.510;9.942;2022-12-18T06:34:10;23.42;;;10.60;;
33672;SDS011;20011;51.510;9.942;2022-12-18T06:36:38;18.05;;;9.23;;
33672;SDS011;20011;51.510;9.942;2022-12-18T06:39:05;19.80;;;8.43;;
33672;SDS011;20011;51.510;9.942;2022-12-18T06:41:32;17.13;;;8.27;;
33672;SDS011;20011;51.510;9.942;2022-12-18T06:44:00;24.38;;;9.45;;
33672;SDS011;20011;51.510;9.942;2022-12-18T06:46:27;17.77;;;8.10;;
33672;SDS011;20011;51.510;9.942;2022-12-18T06:48:54;16.42;;;8.13;;
33672;SDS011;20011;51.510;9.942;2022-12-18T06:51:22;19.90;;;8.88;;
33672;SDS011;20011;51.510;9.942;2022-12-18T06:53:50;25.48;;;9.43;;
33672;SDS011;20011;51.510;9.942;2022-12-18T06:56:17;17.50;;;9.00;;
33672;SDS011;20011;51.510;9.942;2022-12-18T06:58:44;21.80;;;9.75;;
33672;SDS011;20011;51.510;9.942;2022-12-18T07:01:12;17.13;;;8.40;;
33672;SDS011;20011;51.510;9.942;2022-12-18T07:03:40;19.63;;;8.40;;
33672;SDS011;20011;51.510;9.942;2022-12-18T07:06:15;17.20;;;8.27;;
33672;SDS011;20011;51.510;9.942;2022-12-18T07:08:44;21.08;;;8.60;;
33672;SDS011;20011;51.510;9.942;2022-12-18T07:11:12;20.98;;;9.38;;
33672;SDS011;20011;51.510;9.942;2022-12-18T07:13:39;18.85;;;7.30;;
33672;SDS011;20011;51.510;9.942;2022-12-18T07:16:08;24.42;;;8.95;;
33672;SDS011;20011;51.510;9.942;2022-12-18T07:18:46;22.75;;;9.00;;
33672;SDS011;20011;51.510;9.942;2022-12-18T07:21:15;14.80;;;6.85;;
33672;SDS011;20011;51.510;9.942;2022-12-18T07:23:43;20.92;;;9.05;;
33672;SDS011;20011;51.510;9.942;2022-12-18T07:26:15;19.50;;;8.70;;
33672;SDS011;20011;51.510;9.942;2022-12-18T07:31:12;23.33;;;9.48;;
33672;SDS011;20011;51.510;9.942;2022-12-18T07:33:46;16.45;;;8.60;;
33672;SDS011;20011;51.510;9.942;2022-12-18T07:36:14;20.92;;;9.38;;
33672;SDS011;20011;51.510;9.942;2022-12-18T07:38:42;27.67;;;9.73;;
33672;SDS011;20011;51.510;9.942;2022-12-18T07:41:10;20.05;;;7.45;;
33672;SDS011;20011;51.510;9.942;2022-12-18T07:43:38;18.90;;;9.68;;
33672;SDS011;20011;51.510;9.942;2022-12-18T07:46:07;16.80;;;8.07;;
33672;SDS011;20011;51.510;9.942;2022-12-18T07:48:35;25.85;;;12.43;;
33672;SDS011;20011;51.510;9.942;2022-12-18T07:51:03;44.67;;;19.25;;
33672;SDS011;20011;51.510;9.942;2022-12-18T07:53:32;34.20;;;16.45;;
33672;SDS011;20011;51.510;9.942;2022-12-18T07:56:02;27.05;;;11.02;;
33672;SDS011;20011;51.510;9.942;2022-12-18T07:58:51;23.67;;;11.48;;
33672;SDS011;20011;51.510;9.942;2022-12-18T08:01:18;21.80;;;10.82;;
33672;SDS011;20011;51.510;9.942;2022-12-18T08:03:46;18.30;;;9.68;;
33672;SDS011;20011;51.510;9.942;2022-12-18T08:06:15;24.58;;;11.15;;
33672;SDS011;20011;51.510;9.942;2022-12-18T08:08:42;22.15;;;10.35;;
33672;SDS011;20011;51.510;9.942;2022-12-18T08:11:10;20.65;;;8.25;;
33672;SDS011;20011;51.510;9.942;2022-12-18T08:13:37;22.08;;;9.32;;
33672;SDS011;20011;51.510;9.942;2022-12-18T08:16:06;18.58;;;9.27;;
33672;SDS011;20011;51.510;9.942;2022-12-18T08:18:34;20.52;;;9.40;;
33672;SDS011;20011;51.510;9.942;2022-12-18T08:21:16;17.00;;;8.38;;
33672;SDS011;20011;51.510;9.942;2022-12-18T08:23:50;22.20;;;9.95;;
33672;SDS011;20011;51.510;9.942;2022-12-18T08:26:18;20.67;;;9.88;;
33672;SDS011;20011;51.510;9.942;2022-12-18T08:28:46;19.20;;;7.82;;
33672;SDS011;20011;51.510;9.942;2022-12-18T08:31:14;15.32;;;8.45;;
33672;SDS011;20011;51.510;9.942;2022-12-18T08:33:42;17.90;;;7.85;;
33672;SDS011;20011;51.510;9.942;2022-12-18T08:36:10;15.20;;;7.47;;
33672;SDS011;20011;51.510;9.942;2022-12-18T08:38:37;20.52;;;8.30;;
33672;SDS011;20011;51.510;9.942;2022-12-18T08:41:06;16.35;;;8.57;;
33672;SDS011;20011;51.510;9.942;2022-12-18T08:43:34;16.67;;;8.30;;
33672;SDS011;20011;51.510;9.942;2022-12-18T08:46:21;26.17;;;9.10;;
33672;SDS011;20011;51.510;9.942;2022-12-18T08:48:50;25.83;;;13.15;;
33672;SDS011;20011;51.510;9.942;2022-12-18T08:51:18;44.10;;;17.10;;
33672;SDS011;20011;51.510;9.942;2022-12-18T08:53:46;34.15;;;15.95;;
33672;SDS011;20011;51.510;9.942;2022-12-18T08:56:13;42.35;;;15.52;;
33672;SDS011;20011;51.510;9.942;2022-12-18T08:58:41;32.80;;;13.60;;
33672;SDS011;20011;51.510;9.942;2022-12-18T09:01:10;31.42;;;14.10;;
33672;SDS011;20011;51.510;9.942;2022-12-18T09:03:38;33.83;;;12.63;;
33672;SDS011;20011;51.510;9.942;2022-12-18T09:06:07;28.15;;;13.07;;
33672;SDS011;20011;51.510;9.942;2022-12-18T09:08:34;24.05;;;11.35;;
33672;SDS011;20011;51.510;9.942;2022-12-18T09:11:03;33.65;;;15.35;;
33672;SDS011;20011;51.510;9.942;2022-12-18T09:13:31;27.85;;;13.68;;
33672;SDS011;20011;51.510;9.942;2022-12-18T09:15:58;27.80;;;12.70;;
33672;SDS011;20011;51.510;9.942;2022-12-18T09:18:26;25.83;;;12.88;;
33672;SDS011;20011;51.510;9.942;2022-12-18T09:20:53;26.77;;;12.18;;
33672;SDS011;20011;51.510;9.942;2022-12-18T09:23:20;19.98;;;10.73;;
33672;SDS011;20011;51.510;9.942;2022-12-18T09:25:48;23.67;;;10.68;;
33672;SDS011;20011;51.510;9.942;2022-12-18T09:35:23;17.25;;;8.63;;
33672;SDS011;20011;51.510;9.942;2022-12-18T09:37:50;17.77;;;7.97;;
33672;SDS011;20011;51.510;9.942;2022-12-18T09:40:18;15.38;;;8.48;;
33672;SDS011;20011;51.510;9.942;2022-12-18T09:42:49;17.92;;;7.65;;
33672;SDS011;20011;51.510;9.942;2022-12-18T09:45:22;24.80;;;10.00;;
33672;SDS011;20011;51.510;9.942;2022-12-18T09:47:49;16.27;;;7.93;;
33672;SDS011;20011;51.510;9.942;2022-12-18T09:52:47;17.17;;;8.32;;
33672;SDS011;20011;51.510;9.942;2022-12-18T09:55:23;20.17;;;7.85;;
33672;SDS011;20011;51.510;9.942;2022-12-18T10:00:55;17.70;;;8.40;;
33672;SDS011;20011;51.510;9.942;2022-12-18T10:03:23;20.95;;;8.90;;
33672;SDS011;20011;51.510;9.942;2022-12-18T10:05:54;19.33;;;9.15;;
33672;SDS011;20011;51.510;9.942;2022-12-18T10:11:34;19.58;;;9.60;;
33672;SDS011;20011;51.510;9.942;2022-12-18T10:16:38;21.23;;;9.70;;
33672;SDS011;20011;51.510;9.942;2022-12-18T10:25:05;15.93;;;8.10;;
33672;SDS011;20011;51.510;9.942;2022-12-18T10:27:48;19.67;;;8.55;;
33672;SDS011;20011;51.510;9.942;2022-12-18T10:30:22;20.05;;;8.73;;
33672;SDS011;20011;51.510;9.942;2022-12-18T10:32:51;14.13;;;7.80;;
33672;SDS011;20011;51.510;9.942;2022-12-18T10:35:20;13.23;;;7.47;;
33672;SDS011;20011;51.510;9.942;2022-12-18T10:38:02;17.58;;;7.93;;
33672;SDS011;20011;51.510;9.942;2022-12-18T10:40:32;14.40;;;7.93;;
33672;SDS011;20011;51.510;9.942;2022-12-18T10:43:13;15.20;;;6.75;;
33672;SDS011;20011;51.510;9.942;2022-12-18T10:45:42;17.00;;;8.70;;
33672;SDS011;20011;51.510;9.942;2022-12-18T10:54:16;21.45;;;8.63;;
33672;SDS011;20011;51.510;9.942;2022-12-18T10:56:43;17.13;;;8.70;;
33672;SDS011;20011;51.510;9.942;2022-12-18T10:59:12;17.40;;;8.18;;
33672;SDS011;20011;51.510;9.942;2022-12-18T11:04:21;27.23;;;12.20;;
33672;SDS011;20011;51.510;9.942;2022-12-18T11:06:53;19.13;;;9.70;;
33672;SDS011;20011;51.510;9.942;2022-12-18T11:11:51;14.02;;;7.30;;
33672;SDS011;20011;51.510;9.942;2022-12-18T11:14:24;19.33;;;8.40;;
33672;SDS011;20011;51.510;9.942;2022-12-18T11:16:56;13.32;;;7.28;;
33672;SDS011;20011;51.510;9.942;2022-12-18T11:19:45;14.60;;;7.43;;
33672;SDS011;20011;51.510;9.942;2022-12-18T11:22:24;15.65;;;7.22;;
33672;SDS011;20011;51.510;9.942;2022-12-18T11:25:27;16.55;;;7.70;;
33672;SDS011;20011;51.510;9.942;2022-12-18T11:27:59;13.63;;;6.88;;
33672;SDS011;20011;51.510;9.942;2022-12-18T11:30:29;17.75;;;7.63;;
33672;SDS011;20011;51.510;9.942;2022-12-18T11:33:05;12.60;;;6.72;;
33672;SDS011;20011;51.510;9.942;2022-12-18T11:38:22;14.98;;;7.93;;
33672;SDS011;20011;51.510;9.942;2022-12-18T11:46:34;14.25;;;6.78;;
33672;SDS011;20011;51.510;9.942;2022-12-18T11:49:17;11.77;;;6.40;;
33672;SDS011;20011;51.510;9.942;2022-12-18T11:52:23;12.32;;;6.30;;
33672;SDS011;20011;51.510;9.942;2022-12-18T11:54:45;23.38;;;8.45;;
33672;SDS011;20011;51.510;9.942;2022-12-18T12:00:11;15.88;;;7.97;;
33672;SDS011;20011;51.510;9.942;2022-12-18T12:21:27;17.67;;;7.60;;
33672;SDS011;20011;51.510;9.942;2022-12-18T12:33:00;13.82;;;6.38;;
33672;SDS011;20011;51.510;9.942;2022-12-18T12:37:40;13.88;;;7.80;;
33672;SDS011;20011;51.510;9.942;2022-12-18T12:40:27;17.15;;;6.03;;
33672;SDS011;20011;51.510;9.942;2022-12-18T12:43:31;10.98;;;5.85;;
33672;SDS011;20011;51.510;9.942;2022-12-18T12:46:16;10.68;;;5.90;;
33672;SDS011;20011;51.510;9.942;2022-12-18T12:51:29;17.88;;;5.20;;
33672;SDS011;20011;51.510;9.942;2022-12-18T12:53:57;9.07;;;4.35;;
33672;SDS011;20011;51.510;9.942;2022-12-18T12:56:30;12.02;;;6.00;;
33672;SDS011;20011;51.510;9.942;2022-12-18T13:04:47;10.95;;;5.28;;
33672;SDS011;20011;51.510;9.942;2022-12-18T13:10:36;14.60;;;5.50;;
33672;SDS011;20011;51.510;9.942;2022-12-18T13:13:08;7.93;;;5.63;;
33672;SDS011;20011;51.510;9.942;2022-12-18T13:15:50;13.65;;;6.15;;
33672;SDS011;20011;51.510;9.942;2022-12-18T13:18:33;10.32;;;5.63;;
33672;SDS011;20011;51.510;9.942;2022-12-18T13:21:44;11.18;;;5.80;;
33672;SDS011;20011;51.510;9.942;2022-12-18T13:23:51;10.25;;;5.30;;
33672;SDS011;20011;51.510;9.942;2022-12-18T13:26:27;10.80;;;5.60;;
33672;SDS011;20011;51.510;9.942;2022-12-18T13:28:57;11.20;;;5.90;;
33672;SDS011;20011;51.510;9.942;2022-12-18T13:32:10;11.40;;;5.10;;
33672;SDS011;20011;51.510;9.942;2022-12-18T13:34:25;9.27;;;4.80;;
33672;SDS011;20011;51.510;9.942;2022-12-18T13:37:45;10.68;;;5.45;;
33672;SDS011;20011;51.510;9.942;2022-12-18T13:40:49;9.57;;;4.85;;
33672;SDS011;20011;51.510;9.942;2022-12-18T13:48:17;16.02;;;6.00;;
33672;SDS011;20011;51.510;9.942;2022-12-18T13:50:49;12.35;;;5.38;;
33672;SDS011;20011;51.510;9.942;2022-12-18T13:53:23;8.27;;;4.97;;
33672;SDS011;20011;51.510;9.942;2022-12-18T13:55:56;21.40;;;6.00;;
33672;SDS011;20011;51.510;9.942;2022-12-18T13:58:23;13.48;;;5.90;;
33672;SDS011;20011;51.510;9.942;2022-12-18T14:00:51;16.63;;;5.28;;
33672;SDS011;20011;51.510;9.942;2022-12-18T14:03:21;10.32;;;4.50;;
33672;SDS011;20011;51.510;9.942;2022-12-18T14:05:54;10.98;;;5.43;;
33672;SDS011;20011;51.510;9.942;2022-12-18T14:08:25;8.27;;;4.85;;
33672;SDS011;20011;51.510;9.942;2022-12-18T14:10:58;8.23;;;4.05;;
33672;SDS011;20011;51.510;9.942;2022-12-18T14:13:30;7.65;;;4.68;;
33672;SDS011;20011;51.510;9.942;2022-12-18T14:16:01;10.13;;;4.88;;
33672;SDS011;20011;51.510;9.942;2022-12-18T14:21:17;7.45;;;4.40;;
33672;SDS011;20011;51.510;9.942;2022-12-18T14:26:45;8.57;;;5.13;;
33672;SDS011;20011;51.510;9.942;2022-12-18T14:29:30;7.60;;;4.85;;
33672;SDS011;20011;51.510;9.942;2022-12-18T14:34:53;11.77;;;5.32;;
33672;SDS011;20011;51.510;9.942;2022-12-18T14:37:22;17.75;;;7.35;;
33672;SDS011;20011;51.510;9.942;2022-12-18T14:39:54;12.10;;;5.68;;
33672;SDS011;20011;51.510;9.942;2022-12-18T14:42:23;7.70;;;4.40;;
33672;SDS011;20011;51.510;9.942;2022-12-18T14:48:20;11.48;;;5.13;;
33672;SDS011;20011;51.510;9.942;2022-12-18T14:51:02;9.23;;;5.63;;
33672;SDS011;20011;51.510;9.942;2022-12-18T14:53:34;14.32;;;5.53;;
33672;SDS011;20011;51.510;9.942;2022-12-18T14:56:03;18.77;;;5.20;;
33672;SDS011;20011;51.510;9.942;2022-12-18T14:58:56;7.90;;;5.30;;
33672;SDS011;20011;51.510;9.942;2022-12-18T15:04:45;10.98;;;5.50;;
33672;SDS011;20011;51.510;9.942;2022-12-18T15:12:39;12.48;;;6.32;;
33672;SDS011;20011;51.510;9.942;2022-12-18T15:18:03;12.85;;;6.57;;
33672;SDS011;20011;51.510;9.942;2022-12-18T15:20:39;11.23;;;6.50;;
33672;SDS011;20011;51.510;9.942;2022-12-18T15:25:45;14.02;;;6.45;;
33672;SDS011;20011;51.510;9.942;2022-12-18T15:28:24;15.63;;;6.72;;
33672;SDS011;20011;51.510;9.942;2022-12-18T15:31:02;12.68;;;6.13;;
33672;SDS011;20011;51.510;9.942;2022-12-18T15:36:22;11.23;;;6.57;;
33672;SDS011;20011;51.510;9.942;2022-12-18T15:38:53;11.30;;;6.03;;
33672;SDS011;20011;51.510;9.942;2022-12-18T15:41:31;12.32;;;5.70;;
33672;SDS011;20011;51.510;9.942;2022-12-18T15:44:03;17.85;;;7.32;;
33672;SDS011;20011;51.510;9.942;2022-12-18T15:46:48;13.55;;;6.72;;
33672;SDS011;20011;51.510;9.942;2022-12-18T15:49:16;14.15;;;6.95;;
33672;SDS011;20011;51.510;9.942;2022-12-18T15:51:43;17.65;;;7.75;;
33672;SDS011;20011;51.510;9.942;2022-12-18T15:54:13;16.75;;;7.72;;
33672;SDS011;20011;51.510;9.942;2022-12-18T15:56:42;14.48;;;6.80;;
33672;SDS011;20011;51.510;9.942;2022-12-18T15:59:28;12.75;;;7.20;;
33672;SDS011;20011;51.510;9.942;2022-12-18T16:01:56;12.88;;;5.85;;
33672;SDS011;20011;51.510;9.942;2022-12-18T16:04:23;14.30;;;8.27;;
33672;SDS011;20011;51.510;9.942;2022-12-18T16:06:51;13.80;;;6.65;;
33672;SDS011;20011;51.510;9.942;2022-12-18T16:09:38;16.38;;;7.25;;
33672;SDS011;20011;51.510;9.942;2022-12-18T16:12:06;13.75;;;7.38;;
33672;SDS011;20011;51.510;9.942;2022-12-18T16:14:48;14.10;;;6.68;;
33672;SDS011;20011;51.510;9.942;2022-12-18T16:17:16;17.55;;;8.20;;
33672;SDS011;20011;51.510;9.942;2022-12-18T16:19:44;15.82;;;7.80;;
33672;SDS011;20011;51.510;9.942;2022-12-18T16:22:15;10.68;;;6.32;;
33672;SDS011;20011;51.510;9.942;2022-12-18T16:24:46;16.98;;;6.82;;
33672;SDS011;20011;51.510;9.942;2022-12-18T16:27:14;18.27;;;7.85;;
33672;SDS011;20011;51.510;9.942;2022-12-18T16:29:41;17.90;;;8.45;;
33672;SDS011;20011;51.510;9.942;2022-12-18T16:32:11;16.67;;;7.40;;
33672;SDS011;20011;51.510;9.942;2022-12-18T16:34:43;14.88;;;7.03;;
33672;SDS011;20011;51.510;9.942;2022-12-18T16:37:11;15.07;;;7.90;;
33672;SDS011;20011;51.510;9.942;2022-12-18T16:39:39;18.65;;;7.65;;
33672;SDS011;20011;51.510;9.942;2022-12-18T16:42:15;13.75;;;6.72;;
33672;SDS011;20011;51.510;9.942;2022-12-18T16:44:46;19.33;;;8.57;;
33672;SDS011;20011;51.510;9.942;2022-12-18T16:47:14;39.17;;;7.95;;
33672;SDS011;20011;51.510;9.942;2022-12-18T16:49:42;18.85;;;8.43;;
33672;SDS011;20011;51.510;9.942;2022-12-18T16:52:11;14.05;;;7.25;;
33672;SDS011;20011;51.510;9.942;2022-12-18T16:54:39;15.57;;;7.50;;
33672;SDS011;20011;51.510;9.942;2022-12-18T16:57:08;13.70;;;7.82;;
33672;SDS011;20011;51.510;9.942;2022-12-18T16:59:41;22.52;;;7.80;;
33672;SDS011;20011;51.510;9.942;2022-12-18T17:02:16;13.93;;;6.75;;
33672;SDS011;20011;51.510;9.942;2022-12-18T17:04:49;14.88;;;7.80;;
33672;SDS011;20011;51.510;9.942;2022-12-18T17:07:16;18.88;;;7.43;;
33672;SDS011;20011;51.510;9.942;2022-12-18T17:09:44;17.70;;;7.93;;
33672;SDS011;20011;51.510;9.942;2022-12-18T17:12:11;16.35;;;8.13;;
33672;SDS011;20011;51.510;9.942;2022-12-18T17:14:38;21.75;;;8.68;;
33672;SDS011;20011;51.510;9.942;2022-12-18T17:17:06;16.88;;;7.80;;
33672;SDS011;20011;51.510;9.942;2022-12-18T17:19:47;20.60;;;8.50;;
33672;SDS011;20011;51.510;9.942;2022-12-18T17:22:14;19.73;;;8.68;;
33672;SDS011;20011;51.510;9.942;2022-12-18T17:24:42;23.25;;;7.97;;
33672;SDS011;20011;51.510;9.942;2022-12-18T17:27:09;15.00;;;7.95;;
33672;SDS011;20011;51.510;9.942;2022-12-18T17:29:36;11.40;;;7.45;;
33672;SDS011;20011;51.510;9.942;2022-12-18T17:32:12;17.20;;;8.25;;
33672;SDS011;20011;51.510;9.942;2022-12-18T17:34:39;14.32;;;8.05;;